Time,TemperatureF,DewpointF,PressureIn,WindDirection,WindDirectionDegrees,WindSpeedMPH,WindSpeedGustMPH,Humidity,HourlyPrecipIn,Conditions,Clouds,dailyrainin,SoftwareType,DateUTC
2013-01-04 00:03:00,42.9,33.1,30.37,NNW,347,0.0,0.0,68,0.00,CLR,,0.00,WeatherDisplay:10.37,2013-01-04 06:03:00,
2013-01-04 00:08:00,42.9,32.7,30.37,NNW,347,0.0,0.0,67,0.00,CLR,,0.00,WeatherDisplay:10.37,2013-01-04 06:08:00,
2013-01-04 00:13:00,42.9,32.7,30.36,ENE,64,0.1,2.3,67,0.00,CLR,,0.00,WeatherDisplay:10.37,2013-01-04 06:13:00,
2013-01-04 00:18:00,42.9,32.7,30.36,ENE,64,0.0,0.0,67,0.00,CLR,,0.00,WeatherDisplay:10.37,2013-01-04 06:18:00,
2013-01-04 00:23:00,42.9,32.7,30.37,ENE,65,0.0,0.0,67,0.00,CLR,,0.00,WeatherDisplay:10.37,2013-01-04 06:23:00,
2013-01-04 00:28:00,42.9,32.7,30.37,ENE,65,0.0,0.0,67,0.00,CLR,,0.00,WeatherDisplay:10.37,2013-01-04 06:28:00,
2013-01-04 00:33:00,43.0,32.8,30.37,ENE,63,0.0,0.0,67,0.00,CLR,,0.00,WeatherDisplay:10.37,2013-01-04 06:33:00,
2013-01-04 00:38:00,43.0,32.8,30.37,ENE,63,0.0,0.0,67,0.00,CLR,,0.00,WeatherDisplay:10.37,2013-01-04 06:38:00,
2013-01-04 00:43:00,43.0,32.4,30.37,ENE,63,0.0,0.0,66,0.00,CLR,,0.00,WeatherDisplay:10.37,2013-01-04 06:43:00,
2013-01-04 00:48:00,43.0,32.4,30.38,ENE,63,0.0,1.0,66,0.00,CLR,,0.00,WeatherDisplay:10.37,2013-01-04 06:48:00,
2013-01-04 00:53:00,43.0,32.4,30.38,NNE,13,0.0,0.0,66,0.00,CLR,,0.00,WeatherDisplay:10.37,2013-01-04 06:53:00,
2013-01-04 00:58:00,43.0,32.8,30.38,NNE,13,0.0,0.0,67,0.00,CLR,,0.00,WeatherDisplay:10.37,2013-01-04 06:58:00,
2013-01-04 01:03:00,43.0,32.4,30.38,NNE,13,0.0,0.0,66,0.00,CLR,,0.00,WeatherDisplay:10.37,2013-01-04 07:03:00,
2013-01-04 01:08:00,43.0,32.4,30.37,NNE,13,0.0,0.0,66,0.00,CLR,,0.00,WeatherDisplay:10.37,2013-01-04 07:08:00,
2013-01-04 01:13:00,43.0,32.4,30.38,NNE,13,0.0,0.0,66,0.00,CLR,,0.00,WeatherDisplay:10.37,2013-01-04 07:13:00,
2013-01-04 01:18:00,42.9,32.3,30.37,NNE,16,0.0,0.0,66,0.00,CLR,,0.00,WeatherDisplay:10.37,2013-01-04 07:18:00,
2013-01-04 01:23:00,43.0,32.4,30.38,NNE,16,0.0,0.0,66,0.00,CLR,,0.00,WeatherDisplay:10.37,2013-01-04 07:23:00,
2013-01-04 01:28:00,42.9,32.3,30.38,NNE,16,0.0,0.0,66,0.00,CLR,,0.00,WeatherDisplay:10.37,2013-01-04 07:28:00,
2013-01-04 01:33:00,42.9,32.3,30.38,NNE,16,0.0,0.0,66,0.00,CLR,,0.00,WeatherDisplay:10.37,2013-01-04 07:33:00,
2013-01-04 01:38:00,42.9,32.7,30.38,NNE,16,0.0,0.0,67,0.00,CLR,,0.00,WeatherDisplay:10.37,2013-01-04 07:38:00,
2013-01-04 01:43:00,42.9,32.7,30.39,NNE,16,0.0,0.0,67,0.00,CLR,,0.00,WeatherDisplay:10.37,2013-01-04 07:43:00,
2013-01-04 01:48:00,42.9,32.7,30.39,NNE,16,0.0,0.0,67,0.00,CLR,,0.00,WeatherDisplay:10.37,2013-01-04 07:48:00,
2013-01-04 01:53:00,42.9,32.7,30.39,NNE,16,0.0,0.0,67,0.00,CLR,,0.00,WeatherDisplay:10.37,2013-01-04 07:53:00,
2013-01-04 01:58:00,42.9,33.1,30.39,NNE,16,0.0,0.0,68,0.00,CLR,,0.00,WeatherDisplay:10.37,2013-01-04 07:58:00,
2013-01-04 02:03:00,42.9,33.1,30.39,NNE,16,0.0,0.0,68,0.00,CLR,,0.00,WeatherDisplay:10.37,2013-01-04 08:03:00,
2013-01-04 02:08:00,42.8,33.0,30.40,NNE,16,0.0,0.0,68,0.00,CLR,,0.00,WeatherDisplay:10.37,2013-01-04 08:08:00,
2013-01-04 02:13:00,42.8,33.0,30.39,NNE,16,0.0,0.0,68,0.00,CLR,,0.00,WeatherDisplay:10.37,2013-01-04 08:13:00,
2013-01-04 02:18:00,42.7,33.2,30.38,NNE,17,0.0,0.0,69,0.00,CLR,,0.00,WeatherDisplay:10.37,2013-01-04 08:18:00,
2013-01-04 02:23:00,42.7,33.6,30.39,NNE,17,0.0,0.0,70,0.00,CLR,,0.00,WeatherDisplay:10.37,2013-01-04 08:23:00,
2013-01-04 02:28:00,42.6,34.2,30.40,NNE,17,0.0,0.0,72,0.01,RA,,0.01,WeatherDisplay:10.37,2013-01-04 08:28:00,
2013-01-04 02:33:00,42.5,34.8,30.40,NNE,17,0.0,0.0,74,0.01,RA,,0.01,WeatherDisplay:10.37,2013-01-04 08:33:00,
2013-01-04 02:38:00,42.3,35.3,30.40,NNE,17,0.0,0.0,76,0.01,CLR,,0.01,WeatherDisplay:10.37,2013-01-04 08:38:00,
2013-01-04 02:43:00,42.1,35.7,30.40,NNE,17,0.0,0.0,78,0.02,RA,,0.02,WeatherDisplay:10.37,2013-01-04 08:43:00,
2013-01-04 02:48:00,41.8,35.8,30.40,NNE,17,0.0,0.0,79,0.02,RA,,0.02,WeatherDisplay:10.37,2013-01-04 08:48:00,
2013-01-04 02:53:00,41.5,35.8,30.41,NW,318,0.0,0.0,80,0.02,,,0.02,WeatherDisplay:10.37,2013-01-04 08:53:00,
2013-01-04 02:58:00,41.1,35.7,30.40,NW,318,0.0,1.2,81,0.02,CLR,,0.02,WeatherDisplay:10.37,2013-01-04 08:58:00,
2013-01-04 03:03:00,40.8,36.0,30.40,NW,318,0.0,0.0,83,0.02,CLR,,0.02,WeatherDisplay:10.37,2013-01-04 09:03:00,
2013-01-04 03:08:00,40.6,35.8,30.41,NW,318,0.0,1.2,83,0.02,CLR,,0.02,WeatherDisplay:10.37,2013-01-04 09:08:00,
2013-01-04 03:13:00,40.5,36.0,30.41,NW,318,0.0,0.0,84,0.02,CLR,,0.02,WeatherDisplay:10.37,2013-01-04 09:13:00,
2013-01-04 03:18:00,40.2,35.8,30.42,WNW,298,1.1,3.5,84,0.02,CLR,,0.02,WeatherDisplay:10.37,2013-01-04 09:18:00,
2013-01-04 03:23:00,40.0,35.6,30.41,WNW,298,0.1,1.2,84,0.02,CLR,,0.02,WeatherDisplay:10.37,2013-01-04 09:23:00,
2013-01-04 03:28:00,39.9,35.8,30.42,WNW,297,0.1,2.0,85,0.01,CLR,,0.02,WeatherDisplay:10.37,2013-01-04 09:28:00,
2013-01-04 03:33:00,39.8,35.7,30.43,NW,305,2.0,4.6,85,0.01,CLR,,0.02,WeatherDisplay:10.37,2013-01-04 09:33:00,
2013-01-04 03:38:00,39.7,35.6,30.43,NW,305,0.4,1.2,85,0.01,CLR,,0.02,WeatherDisplay:10.37,2013-01-04 09:38:00,
2013-01-04 03:43:00,39.7,35.6,30.43,NW,305,0.0,1.2,85,0.00,CLR,,0.02,WeatherDisplay:10.37,2013-01-04 09:43:00,
2013-01-04 03:48:00,39.6,35.2,30.42,NW,305,0.0,0.0,84,0.00,CLR,,0.02,WeatherDisplay:10.37,2013-01-04 09:48:00,
2013-01-04 03:53:00,39.6,35.2,30.42,NW,313,1.3,3.5,84,0.00,CLR,,0.02,WeatherDisplay:10.37,2013-01-04 09:53:00,
2013-01-04 03:58:00,39.5,35.1,30.42,NW,313,0.1,0.0,84,0.00,CLR,,0.02,WeatherDisplay:10.37,2013-01-04 09:58:00,
2013-01-04 04:03:00,39.5,35.1,30.42,NNW,346,2.2,4.0,84,0.00,CLR,,0.02,WeatherDisplay:10.37,2013-01-04 10:03:00,
2013-01-04 04:08:00,39.4,35.0,30.41,North,355,0.7,3.5,84,0.01,RA,,0.03,WeatherDisplay:10.37,2013-01-04 10:08:00,
2013-01-04 04:13:00,39.3,35.2,30.42,North,355,0.0,0.0,85,0.01,RA,,0.03,WeatherDisplay:10.37,2013-01-04 10:13:00,
2013-01-04 04:18:00,39.2,35.1,30.42,WNW,296,0.1,1.2,85,0.01,CLR,,0.03,WeatherDisplay:10.37,2013-01-04 10:18:00,
2013-01-04 04:23:00,39.1,35.0,30.42,WNW,296,0.0,2.3,85,0.01,CLR,,0.03,WeatherDisplay:10.37,2013-01-04 10:23:00,
2013-01-04 04:28:00,39.0,35.2,30.42,NNE,18,0.8,2.3,86,0.01,CLR,,0.03,WeatherDisplay:10.37,2013-01-04 10:28:00,
2013-01-04 04:33:00,38.9,35.1,30.43,NNE,18,0.0,0.0,86,0.01,CLR,,0.03,WeatherDisplay:10.37,2013-01-04 10:33:00,
2013-01-04 04:38:00,38.9,35.1,30.43,NNE,18,0.0,1.2,86,0.01,CLR,,0.03,WeatherDisplay:10.37,2013-01-04 10:38:00,
2013-01-04 04:43:00,38.8,35.3,30.43,North,360,0.7,2.3,87,0.01,CLR,,0.03,WeatherDisplay:10.37,2013-01-04 10:43:00,
2013-01-04 04:48:00,38.7,35.2,30.42,North,5,0.0,0.0,87,0.01,CLR,,0.03,WeatherDisplay:10.37,2013-01-04 10:48:00,
2013-01-04 04:53:00,38.7,35.2,30.43,NNW,345,1.0,3.0,87,0.01,CLR,,0.03,WeatherDisplay:10.37,2013-01-04 10:53:00,
2013-01-04 04:58:00,38.6,35.1,30.43,North,355,1.5,3.5,87,0.01,CLR,,0.03,WeatherDisplay:10.37,2013-01-04 10:58:00,
2013-01-04 05:03:00,38.4,35.2,30.43,WNW,290,1.3,6.0,88,0.01,CLR,,0.03,WeatherDisplay:10.37,2013-01-04 11:03:00,
2013-01-04 05:08:00,38.2,35.0,30.43,WNW,296,3.8,5.8,88,0.01,RA,,0.04,WeatherDisplay:10.37,2013-01-04 11:08:00,
2013-01-04 05:13:00,38.1,34.9,30.43,NW,309,0.9,3.5,88,0.01,RA,,0.04,WeatherDisplay:10.37,2013-01-04 11:13:00,
2013-01-04 05:18:00,38.0,35.0,30.43,North,5,0.5,3.5,89,0.01,CLR,,0.04,WeatherDisplay:10.37,2013-01-04 11:18:00,
2013-01-04 05:23:00,37.9,34.9,30.43,North,355,0.0,2.3,89,0.01,CLR,,0.04,WeatherDisplay:10.37,2013-01-04 11:23:00,
2013-01-04 05:28:00,37.8,34.8,30.42,North,355,1.1,3.5,89,0.01,CLR,,0.04,WeatherDisplay:10.37,2013-01-04 11:28:00,
2013-01-04 05:33:00,37.8,35.1,30.43,NNW,330,1.1,3.0,90,0.01,CLR,,0.04,WeatherDisplay:10.37,2013-01-04 11:33:00,
2013-01-04 05:38:00,37.7,35.0,30.43,North,355,1.3,3.5,90,0.01,CLR,,0.04,WeatherDisplay:10.37,2013-01-04 11:38:00,
2013-01-04 05:43:00,37.7,35.0,30.43,NNW,331,2.1,3.5,90,0.01,CLR,,0.04,WeatherDisplay:10.37,2013-01-04 11:43:00,
2013-01-04 05:48:00,37.6,34.9,30.43,NNW,329,0.4,1.2,90,0.01,CLR,,0.04,WeatherDisplay:10.37,2013-01-04 11:48:00,
2013-01-04 05:53:00,37.5,34.8,30.44,West,279,1.5,5.0,90,0.01,CLR,,0.04,WeatherDisplay:10.37,2013-01-04 11:53:00,
2013-01-04 05:58:00,37.5,34.8,30.44,NNW,332,0.9,3.5,90,0.01,CLR,,0.04,WeatherDisplay:10.37,2013-01-04 11:58:00,
2013-01-04 06:03:00,37.4,35.0,30.44,North,355,1.7,3.5,91,0.01,CLR,,0.04,WeatherDisplay:10.37,2013-01-04 12:03:00,
2013-01-04 06:08:00,37.4,35.0,30.44,East,81,0.0,0.0,91,0.00,CLR,,0.04,WeatherDisplay:10.37,2013-01-04 12:08:00,
2013-01-04 06:13:00,37.4,35.0,30.43,NNW,344,0.0,0.0,91,0.00,CLR,,0.04,WeatherDisplay:10.37,2013-01-04 12:13:00,
2013-01-04 06:18:00,37.4,35.0,30.44,NW,306,0.4,3.5,91,0.00,CLR,,0.04,WeatherDisplay:10.37,2013-01-04 12:18:00,
2013-01-04 06:23:00,37.4,35.0,30.45,NW,306,1.2,2.3,91,0.00,CLR,,0.04,WeatherDisplay:10.37,2013-01-04 12:23:00,
2013-01-04 06:28:00,37.3,34.9,30.44,NE,38,0.0,0.0,91,0.00,CLR,,0.04,WeatherDisplay:10.37,2013-01-04 12:28:00,
2013-01-04 06:33:00,37.3,34.9,30.44,NNE,18,0.7,3.5,91,0.00,CLR,,0.04,WeatherDisplay:10.37,2013-01-04 12:33:00,
2013-01-04 06:38:00,37.3,34.9,30.45,NNW,348,1.7,3.5,91,0.00,CLR,,0.04,WeatherDisplay:10.37,2013-01-04 12:38:00,
2013-01-04 06:43:00,37.3,34.9,30.45,NNW,342,0.6,3.5,91,0.00,CLR,,0.04,WeatherDisplay:10.37,2013-01-04 12:43:00,
2013-01-04 06:48:00,37.3,34.9,30.44,NNW,342,0.1,1.2,91,0.00,CLR,,0.04,WeatherDisplay:10.37,2013-01-04 12:48:00,
2013-01-04 06:53:00,37.3,34.9,30.45,NW,316,1.6,3.5,91,0.00,CLR,,0.04,WeatherDisplay:10.37,2013-01-04 12:53:00,
2013-01-04 06:58:00,37.3,34.9,30.45,WNW,293,0.7,1.2,91,0.00,CLR,,0.04,WeatherDisplay:10.37,2013-01-04 12:58:00,
2013-01-04 07:03:00,37.3,34.9,30.46,NNW,342,0.8,3.0,91,0.00,CLR,,0.04,WeatherDisplay:10.37,2013-01-04 13:03:00,
2013-01-04 07:08:00,37.2,34.8,30.47,WNW,297,0.8,1.2,91,0.00,CLR,,0.04,WeatherDisplay:10.37,2013-01-04 13:08:00,
2013-01-04 07:13:00,37.3,34.9,30.46,NNW,332,1.1,3.5,91,0.00,CLR,,0.04,WeatherDisplay:10.37,2013-01-04 13:13:00,
2013-01-04 07:18:00,37.3,34.9,30.46,North,355,0.0,2.3,91,0.00,CLR,,0.04,WeatherDisplay:10.37,2013-01-04 13:18:00,
2013-01-04 07:23:00,37.3,34.9,30.45,ENE,71,0.8,3.5,91,0.00,CLR,,0.04,WeatherDisplay:10.37,2013-01-04 13:23:00,
2013-01-04 07:28:00,37.3,34.9,30.45,NNE,33,0.8,2.3,91,0.00,CLR,,0.04,WeatherDisplay:10.37,2013-01-04 13:28:00,
2013-01-04 07:33:00,37.3,35.2,30.46,SSE,147,0.0,0.0,92,0.01,RA,,0.05,WeatherDisplay:10.37,2013-01-04 13:33:00,
2013-01-04 07:38:00,37.3,35.2,30.46,SSE,164,0.0,0.0,92,0.01,RA,,0.05,WeatherDisplay:10.37,2013-01-04 13:38:00,
2013-01-04 07:43:00,37.3,35.2,30.46,NNW,331,0.3,2.3,92,0.01,,,0.05,WeatherDisplay:10.37,2013-01-04 13:43:00,
2013-01-04 07:48:00,37.3,35.2,30.45,NNW,348,0.2,1.2,92,0.01,CLR,,0.05,WeatherDisplay:10.37,2013-01-04 13:48:00,
2013-01-04 07:53:00,37.3,35.2,30.46,NNW,348,0.5,2.3,92,0.01,CLR,,0.05,WeatherDisplay:10.37,2013-01-04 13:53:00,
2013-01-04 07:58:00,37.3,35.2,30.46,NNW,346,0.7,1.0,92,0.01,CLR,,0.05,WeatherDisplay:10.37,2013-01-04 13:58:00,
2013-01-04 08:03:00,37.3,35.2,30.47,NNW,338,0.1,1.2,92,0.01,CLR,,0.05,WeatherDisplay:10.37,2013-01-04 14:03:00,
2013-01-04 08:08:00,37.3,35.2,30.47,ENE,66,0.0,3.5,92,0.01,CLR,,0.05,WeatherDisplay:10.37,2013-01-04 14:08:00,
2013-01-04 08:13:00,37.4,35.3,30.48,ENE,66,0.0,0.0,92,0.01,CLR,,0.05,WeatherDisplay:10.37,2013-01-04 14:13:00,
2013-01-04 08:18:00,37.4,35.3,30.47,ENE,66,0.0,0.0,92,0.01,CLR,,0.05,WeatherDisplay:10.37,2013-01-04 14:18:00,
2013-01-04 08:23:00,37.4,35.3,30.47,ESE,123,0.0,0.0,92,0.01,CLR,,0.05,WeatherDisplay:10.37,2013-01-04 14:23:00,
2013-01-04 08:28:00,37.4,35.3,30.47,ESE,123,0.0,0.0,92,0.01,CLR,,0.05,WeatherDisplay:10.37,2013-01-04 14:28:00,
2013-01-04 08:33:00,37.4,35.3,30.47,NE,55,0.2,1.2,92,0.00,CLR,,0.05,WeatherDisplay:10.37,2013-01-04 14:33:00,
2013-01-04 08:38:00,37.4,35.6,30.48,NNW,327,1.2,2.3,93,0.01,RA,,0.06,WeatherDisplay:10.37,2013-01-04 14:38:00,
2013-01-04 08:43:00,37.4,35.6,30.48,NE,53,1.0,3.5,93,0.01,RA,,0.06,WeatherDisplay:10.37,2013-01-04 14:43:00,
2013-01-04 08:48:00,37.5,35.7,30.47,NE,44,0.0,2.3,93,0.01,,,0.06,WeatherDisplay:10.37,2013-01-04 14:48:00,
2013-01-04 08:53:00,37.5,35.7,30.47,North,360,0.6,3.5,93,0.01,CLR,,0.06,WeatherDisplay:10.37,2013-01-04 14:53:00,
2013-01-04 08:58:00,37.5,35.7,30.47,North,11,0.8,3.5,93,0.01,CLR,,0.06,WeatherDisplay:10.37,2013-01-04 14:58:00,
2013-01-04 09:03:00,37.5,35.7,30.48,North,11,0.5,3.0,93,0.01,CLR,,0.06,WeatherDisplay:10.37,2013-01-04 15:03:00,
2013-01-04 09:08:00,37.5,35.7,30.48,North,5,0.7,1.2,93,0.01,CLR,,0.06,WeatherDisplay:10.37,2013-01-04 15:08:00,
2013-01-04 09:13:00,37.5,35.7,30.48,North,5,0.0,0.0,93,0.01,CLR,,0.06,WeatherDisplay:10.37,2013-01-04 15:13:00,
2013-01-04 09:18:00,37.6,35.8,30.49,NNW,331,1.0,1.2,93,0.01,CLR,,0.06,WeatherDisplay:10.37,2013-01-04 15:18:00,
2013-01-04 09:23:00,37.6,35.8,30.49,NNW,338,0.8,2.3,93,0.01,CLR,,0.06,WeatherDisplay:10.37,2013-01-04 15:23:00,
2013-01-04 09:28:00,37.6,35.8,30.49,NNW,338,0.6,2.3,93,0.02,RA,,0.07,WeatherDisplay:10.37,2013-01-04 15:28:00,
2013-01-04 09:33:00,37.6,35.8,30.49,NE,34,0.4,3.5,93,0.02,RA,,0.07,WeatherDisplay:10.37,2013-01-04 15:33:00,
2013-01-04 09:38:00,37.6,35.8,30.49,East,93,0.3,2.3,93,0.01,,,0.07,WeatherDisplay:10.37,2013-01-04 15:38:00,
2013-01-04 09:43:00,37.7,35.9,30.49,North,355,0.3,0.0,93,0.01,CLR,,0.07,WeatherDisplay:10.37,2013-01-04 15:43:00,
2013-01-04 09:48:00,37.8,36.0,30.50,ENE,57,0.0,0.0,93,0.01,CLR,,0.07,WeatherDisplay:10.37,2013-01-04 15:48:00,
2013-01-04 09:53:00,37.8,36.0,30.50,North,360,1.5,3.5,93,0.01,CLR,,0.07,WeatherDisplay:10.37,2013-01-04 15:53:00,
2013-01-04 09:58:00,37.9,36.1,30.49,North,360,1.1,2.0,93,0.01,CLR,,0.07,WeatherDisplay:10.37,2013-01-04 15:58:00,
2013-01-04 10:03:00,37.9,36.1,30.49,ENE,61,2.1,2.3,93,0.01,CLR,,0.07,WeatherDisplay:10.37,2013-01-04 16:03:00,
2013-01-04 10:08:00,38.1,36.3,30.49,NNE,30,0.0,2.3,93,0.01,CLR,,0.07,WeatherDisplay:10.37,2013-01-04 16:08:00,
2013-01-04 10:13:00,38.2,36.4,30.49,ENE,76,2.4,3.5,93,0.01,CLR,,0.07,WeatherDisplay:10.37,2013-01-04 16:13:00,
2013-01-04 10:18:00,38.3,36.5,30.49,NNE,30,0.0,3.5,93,0.01,CLR,,0.07,WeatherDisplay:10.37,2013-01-04 16:18:00,
2013-01-04 10:23:00,38.3,36.5,30.49,NNE,17,0.4,3.5,93,0.01,CLR,,0.07,WeatherDisplay:10.37,2013-01-04 16:23:00,
2013-01-04 10:28:00,38.4,36.8,30.49,NE,34,0.0,0.0,94,0.00,CLR,,0.07,WeatherDisplay:10.37,2013-01-04 16:28:00,
2013-01-04 10:33:00,38.6,37.0,30.49,NNE,22,0.0,2.3,94,0.00,CLR,,0.07,WeatherDisplay:10.37,2013-01-04 16:33:00,
2013-01-04 10:38:00,38.7,37.1,30.49,NNE,28,0.1,2.3,94,0.00,CLR,,0.07,WeatherDisplay:10.37,2013-01-04 16:38:00,
2013-01-04 10:43:00,38.8,36.9,30.49,NW,314,0.7,3.5,93,0.00,CLR,,0.07,WeatherDisplay:10.37,2013-01-04 16:43:00,
2013-01-04 10:48:00,38.9,37.0,30.49,ENE,67,0.0,0.0,93,0.00,CLR,,0.07,WeatherDisplay:10.37,2013-01-04 16:48:00,
2013-01-04 10:53:00,38.9,37.0,30.49,ENE,67,0.8,2.3,93,0.00,CLR,,0.07,WeatherDisplay:10.37,2013-01-04 16:53:00,
2013-01-04 10:58:00,38.9,37.3,30.48,NE,53,0.0,1.2,94,0.00,CLR,,0.07,WeatherDisplay:10.37,2013-01-04 16:58:00,
2013-01-04 11:03:00,38.9,37.0,30.48,NE,40,0.4,2.3,93,0.00,CLR,,0.07,WeatherDisplay:10.37,2013-01-04 17:03:00,
2013-01-04 11:08:00,39.1,37.5,30.48,NNE,13,0.4,3.5,94,0.00,CLR,,0.07,WeatherDisplay:10.37,2013-01-04 17:08:00,
2013-01-04 11:13:00,39.3,37.7,30.48,NE,39,0.2,2.0,94,0.00,CLR,,0.07,WeatherDisplay:10.37,2013-01-04 17:13:00,
2013-01-04 11:18:00,39.5,37.6,30.48,NE,36,1.2,4.0,93,0.00,CLR,,0.07,WeatherDisplay:10.37,2013-01-04 17:18:00,
2013-01-04 11:23:00,39.5,37.6,30.48,NNE,26,1.2,3.5,93,0.00,CLR,,0.07,WeatherDisplay:10.37,2013-01-04 17:23:00,
2013-01-04 11:28:00,39.6,37.7,30.47,North,355,0.3,4.6,93,0.00,CLR,,0.07,WeatherDisplay:10.37,2013-01-04 17:28:00,
2013-01-04 11:33:00,39.7,37.8,30.47,NNE,17,0.0,2.3,93,0.00,CLR,,0.07,WeatherDisplay:10.37,2013-01-04 17:33:00,
2013-01-04 11:38:00,39.8,37.9,30.46,NNE,30,0.5,3.5,93,0.00,CLR,,0.07,WeatherDisplay:10.37,2013-01-04 17:38:00,
2013-01-04 11:43:00,39.8,37.9,30.46,SE,135,0.4,2.3,93,0.00,CLR,,0.07,WeatherDisplay:10.37,2013-01-04 17:43:00,
2013-01-04 11:48:00,39.7,37.8,30.46,NNE,31,0.0,2.3,93,0.00,CLR,,0.07,WeatherDisplay:10.37,2013-01-04 17:48:00,
2013-01-04 11:53:00,39.7,37.6,30.46,ENE,71,0.0,1.2,92,0.00,CLR,,0.07,WeatherDisplay:10.37,2013-01-04 17:53:00,
2013-01-04 11:58:00,39.7,37.6,30.45,East,90,0.2,2.3,92,0.00,CLR,,0.07,WeatherDisplay:10.37,2013-01-04 17:58:00,
2013-01-04 12:03:00,39.7,37.6,30.45,NNE,26,0.3,3.5,92,0.00,CLR,,0.08,WeatherDisplay:10.37,2013-01-04 18:03:00,
2013-01-04 12:08:00,39.7,37.6,30.45,ENE,61,0.8,0.0,92,0.01,RA,,0.08,WeatherDisplay:10.37,2013-01-04 18:08:00,
2013-01-04 12:13:00,39.8,37.7,30.45,NE,44,0.2,1.0,92,0.01,RA,,0.09,WeatherDisplay:10.37,2013-01-04 18:13:00,
2013-01-04 12:18:00,39.9,37.8,30.44,NE,46,0.2,2.3,92,0.02,RA,,0.09,WeatherDisplay:10.37,2013-01-04 18:18:00,
2013-01-04 12:23:00,40.0,37.9,30.44,North,355,1.1,1.2,92,0.02,RA,,0.09,WeatherDisplay:10.37,2013-01-04 18:23:00,
2013-01-04 12:28:00,40.1,38.0,30.43,NE,43,0.5,1.2,92,0.02,CLR,,0.09,WeatherDisplay:10.37,2013-01-04 18:28:00,
2013-01-04 12:33:00,40.1,38.0,30.43,NE,44,0.0,1.2,92,0.02,CLR,,0.09,WeatherDisplay:10.37,2013-01-04 18:33:00,
2013-01-04 12:38:00,40.1,38.0,30.42,North,355,0.3,3.5,92,0.02,CLR,,0.09,WeatherDisplay:10.37,2013-01-04 18:38:00,
2013-01-04 12:43:00,40.0,37.9,30.42,East,101,0.3,2.3,92,0.02,CLR,,0.09,WeatherDisplay:10.37,2013-01-04 18:43:00,
2013-01-04 12:48:00,40.0,37.9,30.42,ENE,61,0.7,2.3,92,0.02,CLR,,0.09,WeatherDisplay:10.37,2013-01-04 18:48:00,
2013-01-04 12:53:00,40.0,37.9,30.42,North,9,0.1,1.2,92,0.02,CLR,,0.09,WeatherDisplay:10.37,2013-01-04 18:53:00,
2013-01-04 12:58:00,40.0,37.9,30.41,NNE,13,0.0,0.0,92,0.02,CLR,,0.09,WeatherDisplay:10.37,2013-01-04 18:58:00,
2013-01-04 13:03:00,40.0,37.9,30.41,NNE,22,0.1,2.3,92,0.02,CLR,,0.09,WeatherDisplay:10.37,2013-01-04 19:03:00,
2013-01-04 13:08:00,40.0,37.9,30.41,NNE,26,0.1,0.0,92,0.02,RA,,0.10,WeatherDisplay:10.37,2013-01-04 19:08:00,
2013-01-04 13:13:00,39.9,37.8,30.40,ENE,70,0.7,4.6,92,0.03,RA,,0.11,WeatherDisplay:10.37,2013-01-04 19:13:00,
2013-01-04 13:18:00,39.9,37.8,30.40,North,5,0.0,0.0,92,0.03,RA,,0.12,WeatherDisplay:10.37,2013-01-04 19:18:00,
2013-01-04 13:23:00,39.9,37.8,30.40,North,5,0.0,0.0,92,0.04,RA,,0.13,WeatherDisplay:10.37,2013-01-04 19:23:00,
2013-01-04 13:28:00,39.9,37.8,30.40,North,5,0.0,1.2,92,0.04,RA,,0.13,WeatherDisplay:10.37,2013-01-04 19:28:00,
2013-01-04 13:33:00,40.0,38.1,30.39,North,5,0.1,2.3,93,0.04,CLR,,0.13,WeatherDisplay:10.37,2013-01-04 19:33:00,
2013-01-04 13:38:00,40.0,38.1,30.39,NNE,26,0.3,0.0,93,0.04,CLR,,0.13,WeatherDisplay:10.37,2013-01-04 19:38:00,
2013-01-04 13:43:00,40.0,38.1,30.39,NNE,26,0.0,2.3,93,0.04,CLR,,0.13,WeatherDisplay:10.37,2013-01-04 19:43:00,
2013-01-04 13:48:00,40.1,38.2,30.38,NNE,24,0.2,1.2,93,0.04,CLR,,0.13,WeatherDisplay:10.37,2013-01-04 19:48:00,
2013-01-04 13:53:00,40.2,38.3,30.38,NNE,14,0.8,2.0,93,0.04,CLR,,0.13,WeatherDisplay:10.37,2013-01-04 19:53:00,
2013-01-04 13:58:00,40.2,38.3,30.38,North,9,0.0,2.3,93,0.04,CLR,,0.13,WeatherDisplay:10.37,2013-01-04 19:58:00,
2013-01-04 14:03:00,40.2,38.3,30.38,North,355,0.5,1.2,93,0.04,CLR,,0.13,WeatherDisplay:10.37,2013-01-04 20:03:00,
2013-01-04 14:08:00,40.3,38.4,30.37,NNW,341,1.2,3.5,93,0.03,CLR,,0.13,WeatherDisplay:10.37,2013-01-04 20:08:00,
2013-01-04 14:13:00,40.4,38.5,30.37,North,360,0.0,1.2,93,0.02,CLR,,0.13,WeatherDisplay:10.37,2013-01-04 20:13:00,
2013-01-04 14:18:00,40.4,38.5,30.37,North,360,0.0,0.0,93,0.01,CLR,,0.13,WeatherDisplay:10.37,2013-01-04 20:18:00,
2013-01-04 14:23:00,40.6,38.7,30.37,NNE,18,0.0,2.3,93,0.00,CLR,,0.13,WeatherDisplay:10.37,2013-01-04 20:23:00,
2013-01-04 14:28:00,40.6,38.7,30.37,NNE,20,0.4,1.2,93,0.00,CLR,,0.13,WeatherDisplay:10.37,2013-01-04 20:28:00,
2013-01-04 14:33:00,40.6,38.7,30.37,NNE,20,0.0,0.0,93,0.00,CLR,,0.13,WeatherDisplay:10.37,2013-01-04 20:33:00,
2013-01-04 14:38:00,40.6,38.7,30.37,NNE,32,0.0,0.0,93,0.00,CLR,,0.13,WeatherDisplay:10.37,2013-01-04 20:38:00,
2013-01-04 14:43:00,40.7,38.8,30.36,NNE,32,0.0,1.2,93,0.00,CLR,,0.13,WeatherDisplay:10.37,2013-01-04 20:43:00,
2013-01-04 14:48:00,40.7,38.8,30.37,NE,34,0.0,0.0,93,0.00,CLR,,0.13,WeatherDisplay:10.37,2013-01-04 20:48:00,
2013-01-04 14:53:00,40.8,39.2,30.37,NE,34,0.0,0.0,94,0.00,CLR,,0.13,WeatherDisplay:10.37,2013-01-04 20:53:00,
2013-01-04 14:58:00,40.9,39.3,30.37,NNE,17,0.3,2.3,94,0.00,CLR,,0.13,WeatherDisplay:10.37,2013-01-04 20:58:00,
2013-01-04 15:03:00,41.0,39.4,30.37,NNE,17,0.0,1.2,94,0.00,CLR,,0.13,WeatherDisplay:10.37,2013-01-04 21:03:00,
2013-01-04 15:08:00,41.0,39.1,30.36,West,281,0.1,0.0,93,0.00,CLR,,0.13,WeatherDisplay:10.37,2013-01-04 21:08:00,
2013-01-04 15:13:00,41.0,39.1,30.37,West,281,1.2,3.5,93,0.00,CLR,,0.13,WeatherDisplay:10.37,2013-01-04 21:13:00,
2013-01-04 15:18:00,40.9,39.0,30.36,WNW,282,0.2,2.3,93,0.00,CLR,,0.13,WeatherDisplay:10.37,2013-01-04 21:18:00,
2013-01-04 15:23:00,40.9,39.0,30.36,WNW,283,1.0,3.5,93,0.00,CLR,,0.13,WeatherDisplay:10.37,2013-01-04 21:23:00,
2013-01-04 15:28:00,40.8,38.9,30.36,NW,314,0.0,0.0,93,0.00,CLR,,0.13,WeatherDisplay:10.37,2013-01-04 21:28:00,
2013-01-04 15:33:00,40.9,39.0,30.36,NNW,329,0.6,3.0,93,0.00,CLR,,0.13,WeatherDisplay:10.37,2013-01-04 21:33:00,
2013-01-04 15:38:00,40.9,39.0,30.36,NNE,17,0.0,1.2,93,0.00,CLR,,0.13,WeatherDisplay:10.37,2013-01-04 21:38:00,
2013-01-04 15:43:00,40.9,39.0,30.36,NNW,327,0.9,3.5,93,0.00,CLR,,0.13,WeatherDisplay:10.37,2013-01-04 21:43:00,
2013-01-04 15:48:00,40.9,39.0,30.37,NNW,331,0.0,0.0,93,0.00,CLR,,0.13,WeatherDisplay:10.37,2013-01-04 21:48:00,
2013-01-04 15:53:00,40.9,39.0,30.37,SE,128,0.0,0.0,93,0.00,CLR,,0.13,WeatherDisplay:10.37,2013-01-04 21:53:00,
2013-01-04 15:58:00,40.9,39.0,30.37,SE,128,0.0,0.0,93,0.00,CLR,,0.13,WeatherDisplay:10.37,2013-01-04 21:58:00,
2013-01-04 16:03:00,41.0,39.1,30.37,SE,127,0.0,1.2,93,0.00,CLR,,0.13,WeatherDisplay:10.37,2013-01-04 22:03:00,
2013-01-04 16:08:00,41.0,39.1,30.38,SE,127,0.0,0.0,93,0.00,CLR,,0.13,WeatherDisplay:10.37,2013-01-04 22:08:00,
2013-01-04 16:13:00,41.0,39.1,30.37,NNE,29,0.1,2.3,93,0.00,CLR,,0.13,WeatherDisplay:10.37,2013-01-04 22:13:00,
2013-01-04 16:18:00,41.0,39.1,30.38,NNE,29,0.0,0.0,93,0.00,CLR,,0.13,WeatherDisplay:10.37,2013-01-04 22:18:00,
2013-01-04 16:23:00,40.9,39.0,30.38,NNE,29,0.8,2.3,93,0.00,CLR,,0.13,WeatherDisplay:10.37,2013-01-04 22:23:00,
2013-01-04 16:28:00,40.8,38.9,30.37,NNE,29,0.0,1.2,93,0.00,CLR,,0.13,WeatherDisplay:10.37,2013-01-04 22:28:00,
2013-01-04 16:33:00,40.7,38.8,30.37,North,5,1.3,1.3,93,0.00,CLR,,0.13,WeatherDisplay:10.37,2013-01-04 22:33:00,
2013-01-04 16:38:00,40.6,38.7,30.38,North,5,0.0,0.0,93,0.00,CLR,,0.13,WeatherDisplay:10.37,2013-01-04 22:38:00,
2013-01-04 16:43:00,40.7,38.8,30.37,North,5,0.0,0.0,93,0.00,CLR,,0.13,WeatherDisplay:10.37,2013-01-04 22:43:00,
2013-01-04 16:48:00,40.7,38.8,30.37,North,5,0.0,0.0,93,0.00,CLR,,0.13,WeatherDisplay:10.37,2013-01-04 22:48:00,
2013-01-04 16:53:00,40.7,38.8,30.37,North,5,0.1,0.0,93,0.00,CLR,,0.13,WeatherDisplay:10.37,2013-01-04 22:53:00,
2013-01-04 16:58:00,40.7,38.8,30.38,North,5,0.1,0.0,93,0.00,CLR,,0.13,WeatherDisplay:10.37,2013-01-04 22:58:00,
2013-01-04 17:03:00,40.7,38.8,30.38,North,5,0.0,0.0,93,0.00,CLR,,0.13,WeatherDisplay:10.37,2013-01-04 23:03:00,
2013-01-04 17:08:00,40.7,38.8,30.38,NNW,346,0.0,1.2,93,0.00,CLR,,0.13,WeatherDisplay:10.37,2013-01-04 23:08:00,
2013-01-04 17:13:00,40.7,38.8,30.38,NNW,346,0.0,0.0,93,0.00,CLR,,0.13,WeatherDisplay:10.37,2013-01-04 23:13:00,
2013-01-04 17:18:00,40.6,38.7,30.38,NNW,346,0.0,0.0,93,0.00,CLR,,0.13,WeatherDisplay:10.37,2013-01-04 23:18:00,
2013-01-04 17:23:00,40.7,38.8,30.38,NNW,346,0.0,0.0,93,0.00,CLR,,0.13,WeatherDisplay:10.37,2013-01-04 23:23:00,
2013-01-04 17:28:00,40.6,38.7,30.37,NNW,346,0.0,0.0,93,0.00,CLR,,0.13,WeatherDisplay:10.37,2013-01-04 23:28:00,
2013-01-04 17:33:00,40.6,38.7,30.37,NNW,346,0.0,0.0,93,0.00,CLR,,0.13,WeatherDisplay:10.37,2013-01-04 23:33:00,
2013-01-04 17:38:00,40.6,38.7,30.37,NNW,346,0.0,0.0,93,0.00,CLR,,0.13,WeatherDisplay:10.37,2013-01-04 23:38:00,
2013-01-04 17:43:00,40.6,38.7,30.37,NNW,346,0.0,0.0,93,0.00,CLR,,0.13,WeatherDisplay:10.37,2013-01-04 23:43:00,
2013-01-04 17:48:00,40.6,38.7,30.37,NNW,346,0.0,0.0,93,0.00,CLR,,0.13,WeatherDisplay:10.37,2013-01-04 23:48:00,
2013-01-04 17:53:00,40.5,38.6,30.38,NNW,346,0.0,0.0,93,0.00,CLR,,0.13,WeatherDisplay:10.37,2013-01-04 23:53:00,
2013-01-04 17:58:00,40.5,38.6,30.38,NNW,346,0.0,0.0,93,0.00,CLR,,0.13,WeatherDisplay:10.37,2013-01-04 23:58:00,
2013-01-04 18:03:00,40.5,38.6,30.38,NNW,346,0.0,0.0,93,0.00,CLR,,0.13,WeatherDisplay:10.37,2013-01-05 00:03:00,
2013-01-04 18:08:00,40.5,38.6,30.38,NNW,346,0.0,0.0,93,0.00,CLR,,0.13,WeatherDisplay:10.37,2013-01-05 00:08:00,
2013-01-04 18:13:00,40.5,38.6,30.38,NNW,346,0.0,0.0,93,0.00,CLR,,0.13,WeatherDisplay:10.37,2013-01-05 00:13:00,
2013-01-04 18:18:00,40.5,38.6,30.38,NNW,346,0.0,0.0,93,0.00,CLR,,0.13,WeatherDisplay:10.37,2013-01-05 00:18:00,
2013-01-04 18:23:00,40.4,38.5,30.38,NNW,346,0.0,0.0,93,0.00,CLR,,0.13,WeatherDisplay:10.37,2013-01-05 00:23:00,
2013-01-04 18:28:00,40.4,38.5,30.38,NNW,346,0.0,0.0,93,0.00,CLR,,0.13,WeatherDisplay:10.37,2013-01-05 00:28:00,
2013-01-04 18:33:00,40.4,38.5,30.38,NNW,346,0.0,0.0,93,0.00,CLR,,0.13,WeatherDisplay:10.37,2013-01-05 00:33:00,
2013-01-04 18:38:00,40.4,38.5,30.38,NNW,346,0.0,0.0,93,0.00,CLR,,0.13,WeatherDisplay:10.37,2013-01-05 00:38:00,
2013-01-04 18:43:00,40.4,38.5,30.39,NNW,346,0.0,0.0,93,0.00,CLR,,0.13,WeatherDisplay:10.37,2013-01-05 00:43:00,
2013-01-04 18:48:00,40.4,38.5,30.38,NNW,346,0.0,0.0,93,0.00,CLR,,0.13,WeatherDisplay:10.37,2013-01-05 00:48:00,
2013-01-04 18:53:00,40.4,38.5,30.38,NNW,346,0.0,0.0,93,0.00,CLR,,0.13,WeatherDisplay:10.37,2013-01-05 00:53:00,
2013-01-04 18:58:00,40.4,38.5,30.38,NNW,346,0.0,0.0,93,0.00,CLR,,0.13,WeatherDisplay:10.37,2013-01-05 00:58:00,
2013-01-04 19:03:00,40.4,38.5,30.38,NNW,346,0.0,0.0,93,0.00,CLR,,0.13,WeatherDisplay:10.37,2013-01-05 01:03:00,
2013-01-04 19:08:00,40.4,38.5,30.38,NNW,346,0.0,0.0,93,0.00,CLR,,0.13,WeatherDisplay:10.37,2013-01-05 01:08:00,
2013-01-04 19:13:00,40.4,38.5,30.38,NNW,346,0.0,0.0,93,0.00,CLR,,0.13,WeatherDisplay:10.37,2013-01-05 01:13:00,
2013-01-04 19:18:00,40.4,38.5,30.38,NNW,346,0.0,0.0,93,0.00,CLR,,0.13,WeatherDisplay:10.37,2013-01-05 01:18:00,
2013-01-04 19:23:00,40.4,38.5,30.38,NNW,346,0.0,0.0,93,0.00,CLR,,0.13,WeatherDisplay:10.37,2013-01-05 01:23:00,
2013-01-04 19:28:00,40.4,38.8,30.38,NNW,346,0.0,0.0,94,0.00,CLR,,0.13,WeatherDisplay:10.37,2013-01-05 01:28:00,
2013-01-04 19:33:00,40.4,38.8,30.39,NNW,346,0.0,0.0,94,0.00,CLR,,0.13,WeatherDisplay:10.37,2013-01-05 01:33:00,
2013-01-04 19:38:00,40.3,38.7,30.38,NNW,346,0.0,0.0,94,0.00,CLR,,0.13,WeatherDisplay:10.37,2013-01-05 01:38:00,
2013-01-04 19:43:00,40.4,38.8,30.39,NNW,346,0.0,0.0,94,0.00,CLR,,0.13,WeatherDisplay:10.37,2013-01-05 01:43:00,
2013-01-04 19:48:00,40.4,38.8,30.39,NNW,346,0.0,0.0,94,0.00,CLR,,0.13,WeatherDisplay:10.37,2013-01-05 01:48:00,
2013-01-04 19:53:00,40.4,38.8,30.39,NNW,346,0.0,0.0,94,0.00,CLR,,0.13,WeatherDisplay:10.37,2013-01-05 01:53:00,
2013-01-04 19:58:00,40.4,38.8,30.39,NNW,346,0.0,1.2,94,0.00,CLR,,0.13,WeatherDisplay:10.37,2013-01-05 01:58:00,
2013-01-04 20:03:00,40.4,38.8,30.38,NNW,346,0.0,0.0,94,0.00,CLR,,0.13,WeatherDisplay:10.37,2013-01-05 02:03:00,
2013-01-04 20:08:00,40.4,38.8,30.38,NNW,346,0.0,0.0,94,0.00,CLR,,0.13,WeatherDisplay:10.37,2013-01-05 02:08:00,
2013-01-04 20:13:00,40.4,38.8,30.39,NNW,346,0.0,0.0,94,0.00,CLR,,0.13,WeatherDisplay:10.37,2013-01-05 02:13:00,
2013-01-04 20:18:00,40.4,38.8,30.39,NNW,346,0.0,0.0,94,0.00,CLR,,0.13,WeatherDisplay:10.37,2013-01-05 02:18:00,
2013-01-04 20:23:00,40.4,38.8,30.39,NNW,346,0.0,0.0,94,0.00,CLR,,0.13,WeatherDisplay:10.37,2013-01-05 02:23:00,
2013-01-04 20:28:00,40.4,38.8,30.39,NNW,346,0.0,0.0,94,0.00,CLR,,0.13,WeatherDisplay:10.37,2013-01-05 02:28:00,
2013-01-04 20:33:00,40.4,38.8,30.39,NNW,346,0.0,0.0,94,0.00,CLR,,0.13,WeatherDisplay:10.37,2013-01-05 02:33:00,
2013-01-04 20:38:00,40.4,38.8,30.39,NNW,346,0.0,0.0,94,0.00,CLR,,0.13,WeatherDisplay:10.37,2013-01-05 02:38:00,
2013-01-04 20:43:00,40.4,38.8,30.39,NNW,346,0.0,0.0,94,0.00,CLR,,0.13,WeatherDisplay:10.37,2013-01-05 02:43:00,
2013-01-04 20:48:00,40.4,38.8,30.40,NNW,346,0.0,0.0,94,0.00,CLR,,0.13,WeatherDisplay:10.37,2013-01-05 02:48:00,
2013-01-04 20:53:00,40.4,38.8,30.40,NNW,346,0.0,0.0,94,0.00,CLR,,0.13,WeatherDisplay:10.37,2013-01-05 02:53:00,
2013-01-04 20:58:00,40.3,38.7,30.40,NNW,346,0.0,0.0,94,0.00,CLR,,0.13,WeatherDisplay:10.37,2013-01-05 02:58:00,
2013-01-04 21:03:00,40.4,38.8,30.40,NNW,346,0.0,0.0,94,0.00,CLR,,0.13,WeatherDisplay:10.37,2013-01-05 03:03:00,
2013-01-04 21:08:00,40.3,38.7,30.39,NNW,346,0.0,0.0,94,0.00,CLR,,0.13,WeatherDisplay:10.37,2013-01-05 03:08:00,
2013-01-04 21:13:00,40.3,38.7,30.39,NNW,346,0.0,0.0,94,0.00,CLR,,0.13,WeatherDisplay:10.37,2013-01-05 03:13:00,
2013-01-04 21:18:00,40.3,38.7,30.39,NNW,346,0.0,0.0,94,0.00,CLR,,0.13,WeatherDisplay:10.37,2013-01-05 03:18:00,
2013-01-04 21:23:00,40.3,38.7,30.39,NNW,346,0.0,0.0,94,0.00,CLR,,0.13,WeatherDisplay:10.37,2013-01-05 03:23:00,
2013-01-04 21:28:00,40.3,38.7,30.39,NNW,346,0.0,0.0,94,0.00,CLR,,0.13,WeatherDisplay:10.37,2013-01-05 03:28:00,
2013-01-04 21:33:00,40.3,38.7,30.39,NNW,346,0.0,0.0,94,0.00,CLR,,0.13,WeatherDisplay:10.37,2013-01-05 03:33:00,
2013-01-04 21:38:00,40.2,38.6,30.39,NNW,346,0.0,0.0,94,0.00,CLR,,0.13,WeatherDisplay:10.37,2013-01-05 03:38:00,
2013-01-04 21:43:00,40.2,38.6,30.40,NNW,346,0.0,1.2,94,0.00,CLR,,0.13,WeatherDisplay:10.37,2013-01-05 03:43:00,
2013-01-04 21:48:00,40.2,38.6,30.39,NNW,346,0.0,0.0,94,0.00,CLR,,0.13,WeatherDisplay:10.37,2013-01-05 03:48:00,
2013-01-04 21:53:00,40.2,38.6,30.40,NNW,346,0.0,0.0,94,0.00,CLR,,0.13,WeatherDisplay:10.37,2013-01-05 03:53:00,
2013-01-04 21:58:00,40.2,38.6,30.39,NNW,346,0.0,0.0,94,0.00,CLR,,0.13,WeatherDisplay:10.37,2013-01-05 03:58:00,
2013-01-04 22:03:00,40.2,38.6,30.39,NNW,346,0.2,0.0,94,0.00,CLR,,0.13,WeatherDisplay:10.37,2013-01-05 04:03:00,
2013-01-04 22:08:00,40.1,38.5,30.39,NNW,346,0.0,0.0,94,0.00,CLR,,0.13,WeatherDisplay:10.37,2013-01-05 04:08:00,
2013-01-04 22:13:00,40.1,38.5,30.39,NNW,346,0.0,2.3,94,0.00,CLR,,0.13,WeatherDisplay:10.37,2013-01-05 04:13:00,
2013-01-04 22:18:00,40.1,38.5,30.39,NNW,346,0.0,0.0,94,0.00,CLR,,0.13,WeatherDisplay:10.37,2013-01-05 04:18:00,
2013-01-04 22:23:00,40.1,38.5,30.39,NW,320,0.0,1.2,94,0.00,CLR,,0.13,WeatherDisplay:10.37,2013-01-05 04:23:00,
2013-01-04 22:28:00,40.1,38.5,30.39,NW,320,0.4,2.0,94,0.00,CLR,,0.13,WeatherDisplay:10.37,2013-01-05 04:28:00,
2013-01-04 22:33:00,40.1,38.5,30.39,NW,320,0.0,0.0,94,0.00,CLR,,0.13,WeatherDisplay:10.37,2013-01-05 04:33:00,
2013-01-04 22:38:00,40.1,38.5,30.39,NW,320,0.0,1.2,94,0.00,CLR,,0.13,WeatherDisplay:10.37,2013-01-05 04:38:00,
2013-01-04 22:43:00,40.1,38.5,30.39,NW,320,0.4,0.0,94,0.00,CLR,,0.13,WeatherDisplay:10.37,2013-01-05 04:43:00,
2013-01-04 22:48:00,40.1,38.5,30.39,NW,320,0.0,0.0,94,0.00,CLR,,0.13,WeatherDisplay:10.37,2013-01-05 04:48:00,
2013-01-04 22:54:00,40.0,38.4,30.39,NW,320,0.0,0.0,94,0.00,CLR,,0.13,WeatherDisplay:10.37,2013-01-05 04:54:00,
2013-01-04 22:59:00,40.1,38.5,30.39,NW,320,0.0,0.0,94,0.00,CLR,,0.13,WeatherDisplay:10.37,2013-01-05 04:59:00,
2013-01-04 23:00:00,40.0,38.4,30.39,NW,320,0.0,0.0,94,0.00,CLR,,0.13,WeatherDisplay:10.37,2013-01-05 05:00:00,
2013-01-04 23:05:00,40.0,38.4,30.38,NW,320,0.0,0.0,94,0.00,CLR,,0.13,WeatherDisplay:10.37,2013-01-05 05:05:00,
2013-01-04 23:10:00,40.0,38.4,30.38,NW,320,0.0,0.0,94,0.00,CLR,,0.13,WeatherDisplay:10.37,2013-01-05 05:10:00,
2013-01-04 23:15:00,40.0,38.4,30.38,NW,320,0.0,0.0,94,0.00,CLR,,0.13,WeatherDisplay:10.37,2013-01-05 05:15:00,
2013-01-04 23:20:00,40.1,38.5,30.38,NW,320,0.0,0.0,94,0.00,CLR,,0.13,WeatherDisplay:10.37,2013-01-05 05:20:00,
2013-01-04 23:25:00,40.1,38.5,30.37,NW,320,0.0,0.0,94,0.00,CLR,,0.13,WeatherDisplay:10.37,2013-01-05 05:25:00,
2013-01-04 23:30:00,40.1,38.5,30.38,NW,320,0.0,0.0,94,0.00,CLR,,0.13,WeatherDisplay:10.37,2013-01-05 05:30:00,
2013-01-04 23:35:00,40.1,38.5,30.37,NW,320,0.0,0.0,94,0.00,CLR,,0.13,WeatherDisplay:10.37,2013-01-05 05:35:00,
2013-01-04 23:40:00,40.1,38.5,30.38,NW,320,0.0,0.0,94,0.00,CLR,,0.13,WeatherDisplay:10.37,2013-01-05 05:40:00,
2013-01-04 23:45:00,40.1,38.5,30.37,NW,320,0.0,0.0,94,0.00,CLR,,0.13,WeatherDisplay:10.37,2013-01-05 05:45:00,
2013-01-04 23:50:00,40.1,38.5,30.37,NW,320,0.0,0.0,94,0.00,CLR,,0.13,WeatherDisplay:10.37,2013-01-05 05:50:00,
2013-01-04 23:55:00,40.1,38.5,30.37,NW,320,0.0,0.0,94,0.00,CLR,,0.13,WeatherDisplay:10.37,2013-01-05 05:55:00,